CYFBBGGH

Guest
Details From CYFB - Iqaluit
To BGGH - Nuuk
Flight Number -
Tags decoded
Created
Modified
Stats Distance 444 nm / 823 km
Max Altitude 0 ft / 0 m
Waypoints 2
Social Downloads 3
Likes 0
Share VATSIM

Download

Looking for another format? Having issues loading an existing format? Contact us
Advertisement - Login to hide

Notes

Requested: CYFB DUTUM N700A AVPUT BGGH Unmatched points: DUTUM N700A AVPUT

Route

CYFB BGGH

ID Type Via Altitude Latitude Longitude Leg Dist Tot Dist Heading (true) Name
O CYFB APT - 0 ft / 0 m 63.75657˚ -68.55606˚ - 0 nm - Iqaluit
O BGGH APT - 0 ft / 0 m 64.19302˚ -51.67645˚ 444 nm 444 nm 79° / 94° Nuuk

Altitude Profile

Advertisement - Login to hide

Weather


0- 5 10 15 20 25 30 35+ Temperature / ° C

Clouds and Precipitation
Forecast for 2017-12-13 00:00 UTC. Updated an hour ago

Ground ~20,000 ft ~40,000 ft Winds

CYFB

Details ICAO CYFB (YFB)
Name Iqaluit
Region Canada
Timezone America/Iqaluit (UTC-5.0)
Stats Elevation 110 ft / 34 m (AMSL)
Location 63.756565° -68.556058°
Runways 1
Magnetic Variation 27.545° W

METAR

CYFB 122200Z 34004KT 290V360 6SM -SN BKN029 OVC088 M15/M19 A2967 RMK SN2SC3AC3 SLP052

Decode

TAF

TAF TAF AMD CYFB 122005Z 1220/1318 36012KT P6SM OVC050 TEMPO 1220/1224 VRB03KT 21/2SM -SN BKN020 OVC050 FM130000 VRB03KT P6SM SCT020 BKN050 RMK NXT FCST BY 130000Z

Decode

Departure Runways

ID Width Length Bearing (true) Bearing (mag) Surface Threshold Offset Overrun Length
17 200 ft / 61 m 8,605 ft / 2,623 m 135.58° 163.12° Asphalt 0 ft / 0 m 210 ft / 64 m
35 200 ft / 61 m 8,605 ft / 2,623 m 315.62° 343.16° Asphalt 0 ft / 0 m 243 ft / 74 m

BGGH

Details ICAO BGGH (GOH)
Name Nuuk
Region Greenland
Timezone America/Godthab (UTC-3.0)
Stats Elevation 283 ft / 86 m (AMSL)
Location 64.193021° -51.676454°
Runways 1
Magnetic Variation 27.021° W

METAR

BGGH 122150Z 28011KT 9999 -SN VV030 M04/M05 Q0994

Decode

TAF

Not found

Destination Runways

ID Width Length Bearing (true) Bearing (mag) Surface Threshold Offset Overrun Length
05 98 ft / 30 m 3,113 ft / 949 m 18.44° 45.46° Asphalt 0 ft / 0 m 0 ft / 0 m
23 98 ft / 30 m 3,113 ft / 949 m 198.44° 225.46° Asphalt 0 ft / 0 m 0 ft / 0 m

Popular Alternatives